sensor_id;sensor_type;location;lat;lon;timestamp;P1;durP1;ratioP1;P2;durP2;ratioP2
16310;SDS011;8264;48.510;8.872;2022-08-19T00:00:15;16.83;;;15.23;;
16310;SDS011;8264;48.510;8.872;2022-08-19T00:02:42;16.80;;;15.10;;
16310;SDS011;8264;48.510;8.872;2022-08-19T00:05:09;16.83;;;15.23;;
16310;SDS011;8264;48.510;8.872;2022-08-19T00:07:36;17.23;;;15.53;;
16310;SDS011;8264;48.510;8.872;2022-08-19T00:10:05;17.63;;;16.03;;
16310;SDS011;8264;48.510;8.872;2022-08-19T00:12:33;17.07;;;15.47;;
16310;SDS011;8264;48.510;8.872;2022-08-19T00:15:01;17.13;;;15.33;;
16310;SDS011;8264;48.510;8.872;2022-08-19T00:17:27;19.07;;;16.17;;
16310;SDS011;8264;48.510;8.872;2022-08-19T00:19:54;19.30;;;16.43;;
16310;SDS011;8264;48.510;8.872;2022-08-19T00:22:20;18.87;;;16.87;;
16310;SDS011;8264;48.510;8.872;2022-08-19T00:24:47;19.33;;;17.33;;
16310;SDS011;8264;48.510;8.872;2022-08-19T00:27:15;20.63;;;17.43;;
16310;SDS011;8264;48.510;8.872;2022-08-19T00:29:41;19.53;;;17.43;;
16310;SDS011;8264;48.510;8.872;2022-08-19T00:32:08;22.97;;;18.23;;
16310;SDS011;8264;48.510;8.872;2022-08-19T00:34:34;20.17;;;18.00;;
16310;SDS011;8264;48.510;8.872;2022-08-19T00:37:01;20.77;;;18.67;;
16310;SDS011;8264;48.510;8.872;2022-08-19T00:39:27;19.20;;;16.80;;
16310;SDS011;8264;48.510;8.872;2022-08-19T00:41:55;20.33;;;17.27;;
16310;SDS011;8264;48.510;8.872;2022-08-19T00:44:24;19.97;;;17.97;;
16310;SDS011;8264;48.510;8.872;2022-08-19T00:46:52;22.27;;;18.10;;
16310;SDS011;8264;48.510;8.872;2022-08-19T00:49:20;19.87;;;17.87;;
16310;SDS011;8264;48.510;8.872;2022-08-19T00:51:51;18.93;;;17.03;;
16310;SDS011;8264;48.510;8.872;2022-08-19T00:54:19;19.67;;;17.43;;
16310;SDS011;8264;48.510;8.872;2022-08-19T00:56:47;23.83;;;17.43;;
16310;SDS011;8264;48.510;8.872;2022-08-19T00:59:14;20.77;;;18.57;;
16310;SDS011;8264;48.510;8.872;2022-08-19T01:01:43;19.47;;;17.37;;
16310;SDS011;8264;48.510;8.872;2022-08-19T01:04:11;20.23;;;16.07;;
16310;SDS011;8264;48.510;8.872;2022-08-19T01:06:37;20.80;;;18.60;;
16310;SDS011;8264;48.510;8.872;2022-08-19T01:09:06;19.20;;;17.23;;
16310;SDS011;8264;48.510;8.872;2022-08-19T01:11:34;22.27;;;18.87;;
16310;SDS011;8264;48.510;8.872;2022-08-19T01:14:02;20.57;;;18.47;;
16310;SDS011;8264;48.510;8.872;2022-08-19T01:16:29;20.67;;;18.30;;
16310;SDS011;8264;48.510;8.872;2022-08-19T01:18:57;22.73;;;19.53;;
16310;SDS011;8264;48.510;8.872;2022-08-19T01:21:25;20.90;;;18.30;;
16310;SDS011;8264;48.510;8.872;2022-08-19T01:23:56;21.30;;;18.93;;
16310;SDS011;8264;48.510;8.872;2022-08-19T01:26:23;20.33;;;18.13;;
16310;SDS011;8264;48.510;8.872;2022-08-19T01:28:51;30.00;;;19.87;;
16310;SDS011;8264;48.510;8.872;2022-08-19T01:31:20;21.60;;;19.27;;
16310;SDS011;8264;48.510;8.872;2022-08-19T01:33:48;23.13;;;19.90;;
16310;SDS011;8264;48.510;8.872;2022-08-19T01:36:16;22.57;;;18.87;;
16310;SDS011;8264;48.510;8.872;2022-08-19T01:38:48;21.43;;;19.23;;
16310;SDS011;8264;48.510;8.872;2022-08-19T01:41:16;20.40;;;17.70;;
16310;SDS011;8264;48.510;8.872;2022-08-19T01:43:44;19.87;;;17.67;;
16310;SDS011;8264;48.510;8.872;2022-08-19T01:46:11;22.73;;;20.00;;
16310;SDS011;8264;48.510;8.872;2022-08-19T01:48:38;23.33;;;20.90;;
16310;SDS011;8264;48.510;8.872;2022-08-19T01:51:06;22.83;;;19.73;;
16310;SDS011;8264;48.510;8.872;2022-08-19T01:53:34;23.67;;;20.37;;
16310;SDS011;8264;48.510;8.872;2022-08-19T01:56:01;23.17;;;19.33;;
16310;SDS011;8264;48.510;8.872;2022-08-19T01:58:30;24.83;;;21.60;;
16310;SDS011;8264;48.510;8.872;2022-08-19T02:00:58;21.77;;;19.47;;
16310;SDS011;8264;48.510;8.872;2022-08-19T02:03:25;21.70;;;18.77;;
16310;SDS011;8264;48.510;8.872;2022-08-19T02:05:55;18.97;;;17.07;;
16310;SDS011;8264;48.510;8.872;2022-08-19T02:08:24;21.67;;;19.40;;
16310;SDS011;8264;48.510;8.872;2022-08-19T02:10:51;23.20;;;19.13;;
16310;SDS011;8264;48.510;8.872;2022-08-19T02:13:17;21.13;;;18.93;;
16310;SDS011;8264;48.510;8.872;2022-08-19T02:15:45;22.77;;;20.27;;
16310;SDS011;8264;48.510;8.872;2022-08-19T02:18:12;23.83;;;19.53;;
16310;SDS011;8264;48.510;8.872;2022-08-19T02:20:39;22.47;;;19.57;;
16310;SDS011;8264;48.510;8.872;2022-08-19T02:23:07;23.33;;;20.93;;
16310;SDS011;8264;48.510;8.872;2022-08-19T02:25:34;22.73;;;20.33;;
16310;SDS011;8264;48.510;8.872;2022-08-19T02:28:00;25.00;;;20.33;;
16310;SDS011;8264;48.510;8.872;2022-08-19T02:30:27;22.17;;;19.87;;
16310;SDS011;8264;48.510;8.872;2022-08-19T02:32:55;24.47;;;21.57;;
16310;SDS011;8264;48.510;8.872;2022-08-19T02:35:21;25.07;;;21.47;;
16310;SDS011;8264;48.510;8.872;2022-08-19T02:37:48;25.43;;;22.57;;
16310;SDS011;8264;48.510;8.872;2022-08-19T02:40:32;27.90;;;21.87;;
16310;SDS011;8264;48.510;8.872;2022-08-19T02:42:59;27.40;;;23.67;;
16310;SDS011;8264;48.510;8.872;2022-08-19T02:45:26;28.03;;;23.17;;
16310;SDS011;8264;48.510;8.872;2022-08-19T02:47:52;27.33;;;23.17;;
16310;SDS011;8264;48.510;8.872;2022-08-19T02:50:21;27.37;;;23.37;;
16310;SDS011;8264;48.510;8.872;2022-08-19T02:52:47;25.53;;;22.90;;
16310;SDS011;8264;48.510;8.872;2022-08-19T02:55:13;26.17;;;23.40;;
16310;SDS011;8264;48.510;8.872;2022-08-19T02:57:40;27.97;;;25.03;;
16310;SDS011;8264;48.510;8.872;2022-08-19T03:00:07;27.97;;;24.13;;
16310;SDS011;8264;48.510;8.872;2022-08-19T03:02:36;29.07;;;23.97;;
16310;SDS011;8264;48.510;8.872;2022-08-19T03:05:03;27.43;;;24.57;;
16310;SDS011;8264;48.510;8.872;2022-08-19T03:07:32;27.00;;;23.23;;
16310;SDS011;8264;48.510;8.872;2022-08-19T03:09:58;27.63;;;23.80;;
16310;SDS011;8264;48.510;8.872;2022-08-19T03:12:25;27.70;;;24.50;;
16310;SDS011;8264;48.510;8.872;2022-08-19T03:14:51;29.43;;;25.20;;
16310;SDS011;8264;48.510;8.872;2022-08-19T03:17:18;29.87;;;24.17;;
16310;SDS011;8264;48.510;8.872;2022-08-19T03:19:44;28.13;;;23.57;;
16310;SDS011;8264;48.510;8.872;2022-08-19T03:22:11;27.77;;;23.17;;
16310;SDS011;8264;48.510;8.872;2022-08-19T03:24:39;26.90;;;22.40;;
16310;SDS011;8264;48.510;8.872;2022-08-19T03:27:05;28.77;;;25.10;;
16310;SDS011;8264;48.510;8.872;2022-08-19T03:29:32;26.53;;;23.70;;
16310;SDS011;8264;48.510;8.872;2022-08-19T03:31:59;27.50;;;24.47;;
16310;SDS011;8264;48.510;8.872;2022-08-19T03:34:28;30.20;;;24.80;;
16310;SDS011;8264;48.510;8.872;2022-08-19T03:36:56;28.07;;;25.03;;
16310;SDS011;8264;48.510;8.872;2022-08-19T03:39:24;30.63;;;25.57;;
16310;SDS011;8264;48.510;8.872;2022-08-19T03:41:53;29.07;;;26.00;;
16310;SDS011;8264;48.510;8.872;2022-08-19T03:44:22;32.40;;;26.93;;
16310;SDS011;8264;48.510;8.872;2022-08-19T03:46:49;30.23;;;27.00;;
16310;SDS011;8264;48.510;8.872;2022-08-19T03:49:17;29.47;;;24.53;;
16310;SDS011;8264;48.510;8.872;2022-08-19T03:51:44;32.07;;;28.67;;
16310;SDS011;8264;48.510;8.872;2022-08-19T03:54:12;31.23;;;27.97;;
16310;SDS011;8264;48.510;8.872;2022-08-19T03:56:40;33.17;;;28.50;;
16310;SDS011;8264;48.510;8.872;2022-08-19T03:59:13;31.17;;;27.87;;
16310;SDS011;8264;48.510;8.872;2022-08-19T04:01:41;30.90;;;27.60;;
16310;SDS011;8264;48.510;8.872;2022-08-19T04:04:08;32.30;;;28.77;;
16310;SDS011;8264;48.510;8.872;2022-08-19T04:06:35;31.33;;;27.20;;
16310;SDS011;8264;48.510;8.872;2022-08-19T04:09:04;34.50;;;29.50;;
16310;SDS011;8264;48.510;8.872;2022-08-19T04:11:33;35.93;;;29.40;;
16310;SDS011;8264;48.510;8.872;2022-08-19T04:14:01;32.30;;;28.80;;
16310;SDS011;8264;48.510;8.872;2022-08-19T04:16:29;32.53;;;28.90;;
16310;SDS011;8264;48.510;8.872;2022-08-19T04:18:56;35.00;;;30.53;;
16310;SDS011;8264;48.510;8.872;2022-08-19T04:21:26;33.97;;;30.03;;
16310;SDS011;8264;48.510;8.872;2022-08-19T04:23:54;35.20;;;29.40;;
16310;SDS011;8264;48.510;8.872;2022-08-19T04:26:21;34.70;;;29.80;;
16310;SDS011;8264;48.510;8.872;2022-08-19T04:28:49;32.63;;;28.93;;
16310;SDS011;8264;48.510;8.872;2022-08-19T04:31:17;33.10;;;29.07;;
16310;SDS011;8264;48.510;8.872;2022-08-19T04:33:47;34.57;;;29.63;;
16310;SDS011;8264;48.510;8.872;2022-08-19T04:36:16;32.73;;;29.07;;
16310;SDS011;8264;48.510;8.872;2022-08-19T04:38:45;29.47;;;26.47;;
16310;SDS011;8264;48.510;8.872;2022-08-19T04:41:12;31.40;;;27.53;;
16310;SDS011;8264;48.510;8.872;2022-08-19T04:43:56;32.93;;;28.30;;
16310;SDS011;8264;48.510;8.872;2022-08-19T04:46:22;32.10;;;27.23;;
16310;SDS011;8264;48.510;8.872;2022-08-19T04:48:50;32.87;;;29.30;;
16310;SDS011;8264;48.510;8.872;2022-08-19T04:51:17;32.67;;;28.40;;
16310;SDS011;8264;48.510;8.872;2022-08-19T04:53:45;31.57;;;27.93;;
16310;SDS011;8264;48.510;8.872;2022-08-19T04:56:13;32.83;;;29.33;;
16310;SDS011;8264;48.510;8.872;2022-08-19T04:58:41;32.93;;;29.43;;
16310;SDS011;8264;48.510;8.872;2022-08-19T05:01:09;34.50;;;30.67;;
16310;SDS011;8264;48.510;8.872;2022-08-19T05:03:35;35.47;;;30.30;;
16310;SDS011;8264;48.510;8.872;2022-08-19T05:06:05;33.97;;;30.20;;
16310;SDS011;8264;48.510;8.872;2022-08-19T05:08:33;35.33;;;30.70;;
16310;SDS011;8264;48.510;8.872;2022-08-19T05:11:01;33.03;;;29.43;;
16310;SDS011;8264;48.510;8.872;2022-08-19T05:13:34;35.20;;;30.03;;
16310;SDS011;8264;48.510;8.872;2022-08-19T05:16:01;34.50;;;30.17;;
16310;SDS011;8264;48.510;8.872;2022-08-19T05:18:27;37.10;;;31.33;;
16310;SDS011;8264;48.510;8.872;2022-08-19T05:21:13;36.23;;;31.63;;
16310;SDS011;8264;48.510;8.872;2022-08-19T05:23:59;34.37;;;30.53;;
16310;SDS011;8264;48.510;8.872;2022-08-19T05:26:26;34.77;;;30.50;;
16310;SDS011;8264;48.510;8.872;2022-08-19T05:28:52;33.07;;;29.07;;
16310;SDS011;8264;48.510;8.872;2022-08-19T05:31:19;35.07;;;30.27;;
16310;SDS011;8264;48.510;8.872;2022-08-19T05:33:46;35.30;;;30.80;;
16310;SDS011;8264;48.510;8.872;2022-08-19T05:36:14;33.37;;;29.53;;
16310;SDS011;8264;48.510;8.872;2022-08-19T05:38:41;36.50;;;30.60;;
16310;SDS011;8264;48.510;8.872;2022-08-19T05:41:07;38.23;;;31.57;;
16310;SDS011;8264;48.510;8.872;2022-08-19T05:43:34;35.97;;;28.90;;
16310;SDS011;8264;48.510;8.872;2022-08-19T05:46:01;33.80;;;30.10;;
16310;SDS011;8264;48.510;8.872;2022-08-19T05:48:29;37.77;;;30.60;;
16310;SDS011;8264;48.510;8.872;2022-08-19T05:50:56;34.60;;;29.30;;
16310;SDS011;8264;48.510;8.872;2022-08-19T05:53:24;33.13;;;29.57;;
16310;SDS011;8264;48.510;8.872;2022-08-19T05:55:51;38.93;;;31.93;;
16310;SDS011;8264;48.510;8.872;2022-08-19T05:58:17;35.37;;;31.07;;
16310;SDS011;8264;48.510;8.872;2022-08-19T06:00:44;33.23;;;29.73;;
16310;SDS011;8264;48.510;8.872;2022-08-19T06:03:10;35.83;;;31.93;;
16310;SDS011;8264;48.510;8.872;2022-08-19T06:05:37;35.10;;;31.30;;
16310;SDS011;8264;48.510;8.872;2022-08-19T06:08:03;34.83;;;31.23;;
16310;SDS011;8264;48.510;8.872;2022-08-19T06:10:31;34.97;;;30.83;;
16310;SDS011;8264;48.510;8.872;2022-08-19T06:12:58;34.77;;;31.00;;
16310;SDS011;8264;48.510;8.872;2022-08-19T06:15:24;34.20;;;29.83;;
16310;SDS011;8264;48.510;8.872;2022-08-19T06:17:53;34.90;;;29.97;;
16310;SDS011;8264;48.510;8.872;2022-08-19T06:20:20;35.63;;;31.83;;
16310;SDS011;8264;48.510;8.872;2022-08-19T06:22:47;34.10;;;30.37;;
16310;SDS011;8264;48.510;8.872;2022-08-19T06:25:16;34.30;;;30.33;;
16310;SDS011;8264;48.510;8.872;2022-08-19T06:27:44;33.17;;;29.23;;
16310;SDS011;8264;48.510;8.872;2022-08-19T06:30:11;33.33;;;29.50;;
16310;SDS011;8264;48.510;8.872;2022-08-19T06:32:38;34.40;;;30.20;;
16310;SDS011;8264;48.510;8.872;2022-08-19T06:35:05;32.70;;;29.20;;
16310;SDS011;8264;48.510;8.872;2022-08-19T06:37:32;34.63;;;30.23;;
16310;SDS011;8264;48.510;8.872;2022-08-19T06:39:59;34.67;;;29.97;;
16310;SDS011;8264;48.510;8.872;2022-08-19T06:42:25;34.37;;;29.33;;
16310;SDS011;8264;48.510;8.872;2022-08-19T06:44:53;32.97;;;29.27;;
16310;SDS011;8264;48.510;8.872;2022-08-19T06:47:20;32.60;;;29.17;;
16310;SDS011;8264;48.510;8.872;2022-08-19T06:49:47;32.00;;;28.60;;
16310;SDS011;8264;48.510;8.872;2022-08-19T06:52:14;38.40;;;30.30;;
16310;SDS011;8264;48.510;8.872;2022-08-19T06:54:41;35.57;;;30.03;;
16310;SDS011;8264;48.510;8.872;2022-08-19T06:57:08;33.27;;;29.63;;
16310;SDS011;8264;48.510;8.872;2022-08-19T06:59:40;33.57;;;29.73;;
16310;SDS011;8264;48.510;8.872;2022-08-19T07:02:08;35.53;;;29.20;;
16310;SDS011;8264;48.510;8.872;2022-08-19T07:04:35;35.43;;;29.83;;
16310;SDS011;8264;48.510;8.872;2022-08-19T07:07:04;32.50;;;29.00;;
16310;SDS011;8264;48.510;8.872;2022-08-19T07:09:34;33.57;;;29.97;;
16310;SDS011;8264;48.510;8.872;2022-08-19T07:12:03;32.63;;;29.20;;
16310;SDS011;8264;48.510;8.872;2022-08-19T07:14:31;30.07;;;26.83;;
16310;SDS011;8264;48.510;8.872;2022-08-19T07:17:02;30.07;;;26.73;;
16310;SDS011;8264;48.510;8.872;2022-08-19T07:19:31;35.13;;;28.30;;
16310;SDS011;8264;48.510;8.872;2022-08-19T07:21:58;30.73;;;27.37;;
16310;SDS011;8264;48.510;8.872;2022-08-19T07:24:27;31.90;;;28.33;;
16310;SDS011;8264;48.510;8.872;2022-08-19T07:26:54;31.53;;;28.23;;
16310;SDS011;8264;48.510;8.872;2022-08-19T07:29:25;33.20;;;28.70;;
16310;SDS011;8264;48.510;8.872;2022-08-19T07:31:52;30.97;;;27.57;;
16310;SDS011;8264;48.510;8.872;2022-08-19T07:34:21;29.47;;;26.27;;
16310;SDS011;8264;48.510;8.872;2022-08-19T07:36:49;28.27;;;25.27;;
16310;SDS011;8264;48.510;8.872;2022-08-19T07:39:18;30.93;;;26.50;;
16310;SDS011;8264;48.510;8.872;2022-08-19T07:41:49;30.77;;;27.60;;
16310;SDS011;8264;48.510;8.872;2022-08-19T07:44:16;31.90;;;27.53;;
16310;SDS011;8264;48.510;8.872;2022-08-19T07:46:44;28.47;;;25.53;;
16310;SDS011;8264;48.510;8.872;2022-08-19T07:49:12;29.37;;;26.27;;
16310;SDS011;8264;48.510;8.872;2022-08-19T07:51:42;29.53;;;26.20;;
16310;SDS011;8264;48.510;8.872;2022-08-19T07:54:10;28.93;;;25.77;;
16310;SDS011;8264;48.510;8.872;2022-08-19T07:56:37;29.77;;;26.63;;
16310;SDS011;8264;48.510;8.872;2022-08-19T07:59:04;27.50;;;24.67;;
16310;SDS011;8264;48.510;8.872;2022-08-19T08:01:31;26.77;;;24.13;;
16310;SDS011;8264;48.510;8.872;2022-08-19T08:03:57;27.90;;;24.90;;
16310;SDS011;8264;48.510;8.872;2022-08-19T08:06:42;25.77;;;23.17;;
16310;SDS011;8264;48.510;8.872;2022-08-19T08:09:29;25.43;;;22.83;;
16310;SDS011;8264;48.510;8.872;2022-08-19T08:11:58;25.83;;;23.30;;
16310;SDS011;8264;48.510;8.872;2022-08-19T08:14:28;23.63;;;21.13;;
16310;SDS011;8264;48.510;8.872;2022-08-19T08:16:56;21.30;;;19.10;;
16310;SDS011;8264;48.510;8.872;2022-08-19T08:19:24;23.47;;;20.50;;
16310;SDS011;8264;48.510;8.872;2022-08-19T08:21:51;23.13;;;20.80;;
16310;SDS011;8264;48.510;8.872;2022-08-19T08:24:19;22.03;;;19.90;;
16310;SDS011;8264;48.510;8.872;2022-08-19T08:26:47;20.20;;;18.17;;
16310;SDS011;8264;48.510;8.872;2022-08-19T08:29:14;20.67;;;18.47;;
16310;SDS011;8264;48.510;8.872;2022-08-19T08:31:41;20.93;;;18.57;;
16310;SDS011;8264;48.510;8.872;2022-08-19T08:34:09;19.30;;;17.30;;
16310;SDS011;8264;48.510;8.872;2022-08-19T08:36:37;20.07;;;17.90;;
16310;SDS011;8264;48.510;8.872;2022-08-19T08:39:06;20.50;;;18.30;;
16310;SDS011;8264;48.510;8.872;2022-08-19T08:41:34;19.87;;;17.77;;
16310;SDS011;8264;48.510;8.872;2022-08-19T08:44:10;18.33;;;16.47;;
16310;SDS011;8264;48.510;8.872;2022-08-19T08:46:41;17.10;;;15.33;;
16310;SDS011;8264;48.510;8.872;2022-08-19T08:49:13;16.33;;;14.73;;
16310;SDS011;8264;48.510;8.872;2022-08-19T08:51:46;17.83;;;15.97;;
16310;SDS011;8264;48.510;8.872;2022-08-19T08:54:15;17.50;;;15.07;;
16310;SDS011;8264;48.510;8.872;2022-08-19T08:56:44;15.13;;;13.70;;
16310;SDS011;8264;48.510;8.872;2022-08-19T08:59:15;15.80;;;14.20;;
16310;SDS011;8264;48.510;8.872;2022-08-19T09:01:45;15.53;;;14.03;;
16310;SDS011;8264;48.510;8.872;2022-08-19T09:04:11;16.73;;;14.70;;
16310;SDS011;8264;48.510;8.872;2022-08-19T09:06:40;15.43;;;13.93;;
16310;SDS011;8264;48.510;8.872;2022-08-19T09:09:13;15.63;;;14.03;;
16310;SDS011;8264;48.510;8.872;2022-08-19T09:11:44;15.47;;;13.80;;
16310;SDS011;8264;48.510;8.872;2022-08-19T09:14:20;17.10;;;13.70;;
16310;SDS011;8264;48.510;8.872;2022-08-19T09:16:55;15.10;;;13.73;;
16310;SDS011;8264;48.510;8.872;2022-08-19T09:19:22;15.53;;;13.97;;
16310;SDS011;8264;48.510;8.872;2022-08-19T09:21:49;15.80;;;14.20;;
16310;SDS011;8264;48.510;8.872;2022-08-19T09:24:16;15.03;;;13.43;;
16310;SDS011;8264;48.510;8.872;2022-08-19T09:26:42;14.60;;;13.07;;
16310;SDS011;8264;48.510;8.872;2022-08-19T09:29:10;14.70;;;13.33;;
16310;SDS011;8264;48.510;8.872;2022-08-19T09:31:38;14.93;;;13.53;;
16310;SDS011;8264;48.510;8.872;2022-08-19T09:34:05;13.77;;;12.33;;
16310;SDS011;8264;48.510;8.872;2022-08-19T09:36:31;13.77;;;12.57;;
16310;SDS011;8264;48.510;8.872;2022-08-19T09:39:00;14.10;;;12.80;;
16310;SDS011;8264;48.510;8.872;2022-08-19T09:41:27;15.33;;;13.83;;
16310;SDS011;8264;48.510;8.872;2022-08-19T09:43:54;14.07;;;12.67;;
16310;SDS011;8264;48.510;8.872;2022-08-19T09:46:22;13.20;;;12.00;;
16310;SDS011;8264;48.510;8.872;2022-08-19T09:48:50;14.77;;;13.37;;
16310;SDS011;8264;48.510;8.872;2022-08-19T09:51:18;14.80;;;13.30;;
16310;SDS011;8264;48.510;8.872;2022-08-19T09:53:46;14.43;;;12.93;;
16310;SDS011;8264;48.510;8.872;2022-08-19T09:56:16;14.87;;;13.47;;
16310;SDS011;8264;48.510;8.872;2022-08-19T09:58:44;15.93;;;12.70;;
16310;SDS011;8264;48.510;8.872;2022-08-19T10:01:15;16.10;;;14.23;;
16310;SDS011;8264;48.510;8.872;2022-08-19T10:03:42;15.90;;;14.20;;
16310;SDS011;8264;48.510;8.872;2022-08-19T10:06:10;15.37;;;13.87;;
16310;SDS011;8264;48.510;8.872;2022-08-19T10:08:37;15.90;;;14.43;;
16310;SDS011;8264;48.510;8.872;2022-08-19T10:11:04;13.77;;;12.37;;
16310;SDS011;8264;48.510;8.872;2022-08-19T10:13:31;15.27;;;13.70;;
16310;SDS011;8264;48.510;8.872;2022-08-19T10:16:02;15.00;;;13.57;;
16310;SDS011;8264;48.510;8.872;2022-08-19T10:18:30;15.80;;;14.30;;
16310;SDS011;8264;48.510;8.872;2022-08-19T10:21:02;14.90;;;13.30;;
16310;SDS011;8264;48.510;8.872;2022-08-19T10:23:34;16.13;;;14.73;;
16310;SDS011;8264;48.510;8.872;2022-08-19T10:26:01;15.87;;;14.27;;
16310;SDS011;8264;48.510;8.872;2022-08-19T10:28:28;15.77;;;13.77;;
16310;SDS011;8264;48.510;8.872;2022-08-19T10:30:54;15.37;;;13.60;;
16310;SDS011;8264;48.510;8.872;2022-08-19T10:33:21;15.17;;;13.47;;
16310;SDS011;8264;48.510;8.872;2022-08-19T10:35:47;15.20;;;13.80;;
16310;SDS011;8264;48.510;8.872;2022-08-19T10:38:14;18.67;;;16.07;;
16310;SDS011;8264;48.510;8.872;2022-08-19T10:40:42;15.03;;;13.60;;
16310;SDS011;8264;48.510;8.872;2022-08-19T10:43:08;15.60;;;14.17;;
16310;SDS011;8264;48.510;8.872;2022-08-19T10:45:34;15.40;;;13.70;;
16310;SDS011;8264;48.510;8.872;2022-08-19T10:48:01;17.10;;;13.53;;
16310;SDS011;8264;48.510;8.872;2022-08-19T10:50:28;15.00;;;13.53;;
16310;SDS011;8264;48.510;8.872;2022-08-19T10:53:12;14.20;;;12.70;;
16310;SDS011;8264;48.510;8.872;2022-08-19T10:55:38;14.73;;;13.33;;
16310;SDS011;8264;48.510;8.872;2022-08-19T10:58:24;13.83;;;12.37;;
16310;SDS011;8264;48.510;8.872;2022-08-19T11:00:51;13.63;;;12.43;;
16310;SDS011;8264;48.510;8.872;2022-08-19T11:03:19;13.27;;;12.17;;
16310;SDS011;8264;48.510;8.872;2022-08-19T11:05:45;13.87;;;11.53;;
16310;SDS011;8264;48.510;8.872;2022-08-19T11:08:13;13.30;;;12.10;;
16310;SDS011;8264;48.510;8.872;2022-08-19T11:10:41;12.83;;;11.53;;
16310;SDS011;8264;48.510;8.872;2022-08-19T11:13:07;13.03;;;11.00;;
16310;SDS011;8264;48.510;8.872;2022-08-19T11:15:35;13.07;;;11.73;;
16310;SDS011;8264;48.510;8.872;2022-08-19T11:18:02;11.87;;;10.67;;
16310;SDS011;8264;48.510;8.872;2022-08-19T11:20:29;13.33;;;11.97;;
16310;SDS011;8264;48.510;8.872;2022-08-19T11:22:56;11.83;;;10.73;;
16310;SDS011;8264;48.510;8.872;2022-08-19T11:25:22;11.53;;;10.57;;
16310;SDS011;8264;48.510;8.872;2022-08-19T11:27:49;11.80;;;10.57;;
16310;SDS011;8264;48.510;8.872;2022-08-19T11:30:17;11.23;;;10.13;;
16310;SDS011;8264;48.510;8.872;2022-08-19T11:32:44;13.67;;;11.10;;
16310;SDS011;8264;48.510;8.872;2022-08-19T11:35:12;11.13;;;10.03;;
16310;SDS011;8264;48.510;8.872;2022-08-19T11:37:39;11.87;;;10.67;;
16310;SDS011;8264;48.510;8.872;2022-08-19T11:40:06;10.53;;;9.53;;
16310;SDS011;8264;48.510;8.872;2022-08-19T11:42:33;12.77;;;10.40;;
16310;SDS011;8264;48.510;8.872;2022-08-19T11:45:17;12.93;;;10.33;;
16310;SDS011;8264;48.510;8.872;2022-08-19T11:47:45;12.07;;;10.07;;
16310;SDS011;8264;48.510;8.872;2022-08-19T11:50:12;11.37;;;10.37;;
16310;SDS011;8264;48.510;8.872;2022-08-19T11:52:39;11.30;;;10.10;;
16310;SDS011;8264;48.510;8.872;2022-08-19T11:55:06;10.67;;;9.60;;
16310;SDS011;8264;48.510;8.872;2022-08-19T11:57:33;10.37;;;9.27;;
16310;SDS011;8264;48.510;8.872;2022-08-19T12:00:00;10.63;;;9.63;;
16310;SDS011;8264;48.510;8.872;2022-08-19T12:02:26;11.27;;;9.87;;
16310;SDS011;8264;48.510;8.872;2022-08-19T12:04:54;10.70;;;9.67;;
16310;SDS011;8264;48.510;8.872;2022-08-19T12:07:21;11.07;;;9.27;;
16310;SDS011;8264;48.510;8.872;2022-08-19T12:09:47;10.33;;;9.50;;
16310;SDS011;8264;48.510;8.872;2022-08-19T12:12:14;9.70;;;8.80;;
16310;SDS011;8264;48.510;8.872;2022-08-19T12:14:40;10.57;;;9.03;;
16310;SDS011;8264;48.510;8.872;2022-08-19T12:17:07;10.07;;;9.27;;
16310;SDS011;8264;48.510;8.872;2022-08-19T12:19:36;9.97;;;9.17;;
16310;SDS011;8264;48.510;8.872;2022-08-19T12:22:05;10.20;;;9.10;;
16310;SDS011;8264;48.510;8.872;2022-08-19T12:24:32;9.90;;;8.80;;
16310;SDS011;8264;48.510;8.872;2022-08-19T12:27:01;10.30;;;9.27;;
16310;SDS011;8264;48.510;8.872;2022-08-19T12:29:28;13.77;;;11.83;;
16310;SDS011;8264;48.510;8.872;2022-08-19T12:31:55;14.60;;;11.20;;
16310;SDS011;8264;48.510;8.872;2022-08-19T12:34:26;12.77;;;11.53;;
16310;SDS011;8264;48.510;8.872;2022-08-19T12:36:54;14.37;;;12.87;;
16310;SDS011;8264;48.510;8.872;2022-08-19T12:39:22;13.57;;;12.23;;
16310;SDS011;8264;48.510;8.872;2022-08-19T12:41:49;15.10;;;11.57;;
16310;SDS011;8264;48.510;8.872;2022-08-19T12:44:16;13.63;;;12.43;;
16310;SDS011;8264;48.510;8.872;2022-08-19T12:46:42;14.40;;;13.10;;
16310;SDS011;8264;48.510;8.872;2022-08-19T12:49:09;13.23;;;12.13;;
16310;SDS011;8264;48.510;8.872;2022-08-19T12:51:36;14.90;;;13.50;;
16310;SDS011;8264;48.510;8.872;2022-08-19T12:54:02;13.70;;;12.50;;
16310;SDS011;8264;48.510;8.872;2022-08-19T12:56:31;13.00;;;11.73;;
16310;SDS011;8264;48.510;8.872;2022-08-19T12:59:00;12.57;;;11.37;;
16310;SDS011;8264;48.510;8.872;2022-08-19T13:01:27;12.47;;;11.33;;
16310;SDS011;8264;48.510;8.872;2022-08-19T13:03:57;12.90;;;11.70;;
16310;SDS011;8264;48.510;8.872;2022-08-19T13:06:24;12.93;;;11.83;;
16310;SDS011;8264;48.510;8.872;2022-08-19T13:08:50;13.03;;;11.63;;
16310;SDS011;8264;48.510;8.872;2022-08-19T13:11:17;13.30;;;11.97;;
16310;SDS011;8264;48.510;8.872;2022-08-19T13:13:48;12.80;;;11.60;;
16310;SDS011;8264;48.510;8.872;2022-08-19T13:16:15;12.50;;;11.40;;
16310;SDS011;8264;48.510;8.872;2022-08-19T13:18:44;13.00;;;11.70;;
16310;SDS011;8264;48.510;8.872;2022-08-19T13:21:12;13.03;;;11.93;;
16310;SDS011;8264;48.510;8.872;2022-08-19T13:23:39;13.30;;;11.97;;
16310;SDS011;8264;48.510;8.872;2022-08-19T13:26:07;13.50;;;12.20;;
16310;SDS011;8264;48.510;8.872;2022-08-19T13:28:34;13.20;;;12.10;;
16310;SDS011;8264;48.510;8.872;2022-08-19T13:31:20;14.63;;;13.37;;
16310;SDS011;8264;48.510;8.872;2022-08-19T13:34:05;13.47;;;12.10;;
16310;SDS011;8264;48.510;8.872;2022-08-19T13:36:32;13.10;;;11.90;;
16310;SDS011;8264;48.510;8.872;2022-08-19T13:38:58;14.40;;;13.07;;
16310;SDS011;8264;48.510;8.872;2022-08-19T13:41:25;13.10;;;11.80;;
16310;SDS011;8264;48.510;8.872;2022-08-19T13:43:51;15.40;;;13.80;;
16310;SDS011;8264;48.510;8.872;2022-08-19T13:46:20;14.30;;;12.80;;
16310;SDS011;8264;48.510;8.872;2022-08-19T13:48:47;14.23;;;12.93;;
16310;SDS011;8264;48.510;8.872;2022-08-19T13:51:14;14.90;;;13.60;;
16310;SDS011;8264;48.510;8.872;2022-08-19T13:53:41;9.97;;;8.97;;
16310;SDS011;8264;48.510;8.872;2022-08-19T13:56:09;9.33;;;8.53;;
16310;SDS011;8264;48.510;8.872;2022-08-19T13:58:37;8.77;;;8.07;;
16310;SDS011;8264;48.510;8.872;2022-08-19T14:01:04;8.90;;;8.10;;
16310;SDS011;8264;48.510;8.872;2022-08-19T14:03:33;9.50;;;8.70;;
16310;SDS011;8264;48.510;8.872;2022-08-19T14:06:00;9.80;;;8.90;;
16310;SDS011;8264;48.510;8.872;2022-08-19T14:08:26;8.93;;;8.10;;
16310;SDS011;8264;48.510;8.872;2022-08-19T14:10:54;9.27;;;8.40;;
16310;SDS011;8264;48.510;8.872;2022-08-19T14:13:21;8.93;;;8.23;;
16310;SDS011;8264;48.510;8.872;2022-08-19T14:15:49;9.93;;;8.53;;
16310;SDS011;8264;48.510;8.872;2022-08-19T14:18:17;10.00;;;8.47;;
16310;SDS011;8264;48.510;8.872;2022-08-19T14:20:45;9.33;;;8.53;;
16310;SDS011;8264;48.510;8.872;2022-08-19T14:23:12;9.97;;;8.73;;
16310;SDS011;8264;48.510;8.872;2022-08-19T14:25:38;8.63;;;7.83;;
16310;SDS011;8264;48.510;8.872;2022-08-19T14:28:05;9.27;;;8.37;;
16310;SDS011;8264;48.510;8.872;2022-08-19T14:30:34;10.20;;;9.20;;
16310;SDS011;8264;48.510;8.872;2022-08-19T14:33:03;9.93;;;9.07;;
16310;SDS011;8264;48.510;8.872;2022-08-19T14:35:31;9.23;;;8.43;;
16310;SDS011;8264;48.510;8.872;2022-08-19T14:38:01;9.67;;;8.40;;
16310;SDS011;8264;48.510;8.872;2022-08-19T14:40:28;9.53;;;8.63;;